Time;durP1;ratioP1;P1;durP2;ratioP2;P2;SDS_P1;SDS_P2;PMS_P1;PMS_P2;Temp;Humidity;BMP_temperature;BMP_pressure;BME280_temperature;BME280_humidity;BME280_pressure;Samples;Min_cycle;Max_cycle;Signal;HPM_P1;HPM_P2
2023/03/16 00:01:06;;;;;;;3.92;1.17;;;;;;;;;;5092840;28;20046;-69
2023/03/16 00:03:33;;;;;;;5.45;1.42;;;;;;;;;;5091505;28;20484;-69
2023/03/16 00:05:59;;;;;;;9.48;1.50;;;;;;;;;;5092500;28;20047;-69
2023/03/16 00:08:25;;;;;;;4.18;1.33;;;;;;;;;;5090128;28;20492;-70
2023/03/16 00:10:52;;;;;;;4.30;1.73;;;;;;;;;;5092721;28;20533;-70
2023/03/16 00:13:22;;;;;;;8.20;1.17;;;;;;;;;;5092475;28;20025;-70
2023/03/16 00:15:55;;;;;;;3.92;1.05;;;;;;;;;;5092522;28;20020;-69
2023/03/16 00:18:25;;;;;;;5.20;0.93;;;;;;;;;;5092555;28;20111;-69
2023/03/16 00:20:54;;;;;;;7.25;1.20;;;;;;;;;;5073918;28;20182;-69
2023/03/16 00:23:25;;;;;;;3.90;0.95;;;;;;;;;;5091404;28;20024;-69
2023/03/16 00:25:55;;;;;;;6.65;2.78;;;;;;;;;;5090054;28;20615;-69
2023/03/16 00:28:22;;;;;;;5.70;0.90;;;;;;;;;;5092641;28;20028;-69
2023/03/16 00:30:48;;;;;;;6.35;1.10;;;;;;;;;;5092172;28;20032;-69
2023/03/16 00:33:15;;;;;;;7.60;1.90;;;;;;;;;;5089491;28;20024;-69
2023/03/16 00:35:49;;;;;;;4.47;1.10;;;;;;;;;;5090828;28;20468;-69
2023/03/16 00:38:18;;;;;;;3.78;0.93;;;;;;;;;;5083430;28;20488;-69
2023/03/16 00:40:44;;;;;;;10.50;1.35;;;;;;;;;;5070239;28;20056;-70
2023/03/16 00:43:11;;;;;;;4.63;1.30;;;;;;;;;;5072190;28;20548;-70
2023/03/16 00:45:37;;;;;;;5.70;1.23;;;;;;;;;;5072216;28;20056;-70
2023/03/16 00:48:03;;;;;;;8.13;1.13;;;;;;;;;;5071743;28;20412;-69
2023/03/16 00:50:30;;;;;;;5.05;1.48;;;;;;;;;;5071663;28;20157;-69
2023/03/16 00:52:56;;;;;;;7.75;1.30;;;;;;;;;;5076345;28;20033;-70
2023/03/16 00:55:22;;;;;;;5.20;1.20;;;;;;;;;;5095006;28;20027;-69
2023/03/16 00:57:48;;;;;;;6.28;1.10;;;;;;;;;;5094134;28;20384;-69
2023/03/16 01:00:15;;;;;;;6.93;1.92;;;;;;;;;;5093885;28;20040;-70
2023/03/16 01:02:45;;;;;;;4.10;1.08;;;;;;;;;;5095413;28;20020;-69
2023/03/16 01:05:12;;;;;;;2.58;1.00;;;;;;;;;;5090363;28;20100;-69
2023/03/16 01:07:41;;;;;;;5.22;1.33;;;;;;;;;;5073955;28;20024;-69
2023/03/16 01:10:08;;;;;;;5.28;1.30;;;;;;;;;;5074455;28;20139;-69
2023/03/16 01:12:35;;;;;;;6.18;1.10;;;;;;;;;;5075581;28;20036;-69
2023/03/16 01:15:01;;;;;;;5.88;1.00;;;;;;;;;;5074101;28;20054;-69
2023/03/16 01:17:27;;;;;;;4.45;1.40;;;;;;;;;;5075136;28;20033;-69
2023/03/16 01:19:53;;;;;;;7.40;1.20;;;;;;;;;;5074990;28;20412;-70
2023/03/16 01:22:20;;;;;;;7.05;1.30;;;;;;;;;;5074085;28;20039;-69
2023/03/16 01:24:46;;;;;;;6.72;1.35;;;;;;;;;;5073870;28;20123;-70
2023/03/16 01:27:13;;;;;;;6.05;1.15;;;;;;;;;;5075228;28;20028;-69
2023/03/16 01:29:42;;;;;;;4.22;0.95;;;;;;;;;;5073805;28;20447;-70
2023/03/16 01:32:09;;;;;;;6.50;1.63;;;;;;;;;;5074693;28;20377;-70
2023/03/16 01:34:36;;;;;;;9.60;1.40;;;;;;;;;;5073713;28;20039;-70
2023/03/16 01:37:03;;;;;;;2.40;0.98;;;;;;;;;;5073820;28;20023;-70
2023/03/16 01:39:39;;;;;;;6.22;1.15;;;;;;;;;;5073665;28;20056;-69
2023/03/16 01:42:06;;;;;;;7.68;1.55;;;;;;;;;;5073747;28;20105;-69
2023/03/16 01:44:49;;;;;;;8.00;1.20;;;;;;;;;;5087901;28;20051;-69
2023/03/16 01:47:17;;;;;;;5.05;1.65;;;;;;;;;;5087494;28;20028;-69
2023/03/16 01:49:47;;;;;;;6.40;1.55;;;;;;;;;;5073708;28;20024;-70
2023/03/16 01:52:33;;;;;;;9.43;1.88;;;;;;;;;;5074690;28;20031;-69
2023/03/16 01:55:02;;;;;;;7.80;1.40;;;;;;;;;;5073372;28;20054;-70
2023/03/16 01:57:35;;;;;;;11.05;1.70;;;;;;;;;;5073443;28;20024;-69
2023/03/16 02:00:09;;;;;;;3.53;1.73;;;;;;;;;;5073127;28;20127;-69
2023/03/16 02:02:43;;;;;;;11.93;1.73;;;;;;;;;;5073742;28;20090;-70
2023/03/16 02:05:13;;;;;;;10.02;1.95;;;;;;;;;;5073015;28;20040;-70
2023/03/16 02:07:41;;;;;;;12.63;2.90;;;;;;;;;;5074538;28;20032;-69
2023/03/16 02:10:08;;;;;;;9.13;2.60;;;;;;;;;;5072909;28;20033;-69
2023/03/16 02:12:35;;;;;;;6.55;1.92;;;;;;;;;;5073331;28;20028;-69
2023/03/16 02:15:03;;;;;;;7.55;1.80;;;;;;;;;;5072574;28;20442;-69
2023/03/16 02:17:30;;;;;;;9.15;1.70;;;;;;;;;;5074235;28;20055;-69
2023/03/16 02:20:16;;;;;;;5.07;1.60;;;;;;;;;;5072955;28;20031;-70
2023/03/16 02:22:48;;;;;;;7.15;3.28;;;;;;;;;;5082287;28;20032;-70
2023/03/16 02:25:16;;;;;;;6.20;1.25;;;;;;;;;;5092971;28;20024;-70
2023/03/16 02:27:45;;;;;;;3.75;1.27;;;;;;;;;;5092126;28;20511;-70
2023/03/16 02:30:11;;;;;;;7.13;1.10;;;;;;;;;;5080529;28;20063;-69
2023/03/16 02:32:47;;;;;;;5.65;1.35;;;;;;;;;;5072947;28;20032;-70
2023/03/16 02:35:14;;;;;;;7.25;1.40;;;;;;;;;;5072450;28;20041;-70
2023/03/16 02:37:40;;;;;;;3.08;1.30;;;;;;;;;;5056295;28;20074;-70
2023/03/16 02:40:21;;;;;;;4.75;1.30;;;;;;;;;;5072246;28;20045;-70
2023/03/16 02:43:01;;;;;;;3.78;1.30;;;;;;;;;;5072500;28;20086;-70
2023/03/16 02:45:32;;;;;;;4.00;1.20;;;;;;;;;;5072031;28;20040;-69
2023/03/16 02:48:02;;;;;;;6.95;1.30;;;;;;;;;;5079768;28;20028;-69
2023/03/16 02:50:29;;;;;;;7.82;1.42;;;;;;;;;;5071886;28;20033;-69
2023/03/16 02:52:55;;;;;;;4.32;1.20;;;;;;;;;;5084262;28;20021;-70
2023/03/16 02:55:22;;;;;;;4.68;1.17;;;;;;;;;;5090941;28;20232;-70
2023/03/16 02:57:48;;;;;;;8.57;1.50;;;;;;;;;;5090045;28;20526;-70
2023/03/16 03:00:17;;;;;;;4.82;1.58;;;;;;;;;;5090790;28;20051;-70
2023/03/16 03:02:45;;;;;;;2.97;1.05;;;;;;;;;;5089828;28;20028;-70
2023/03/16 03:05:12;;;;;;;2.80;1.02;;;;;;;;;;5091140;28;20032;-70
2023/03/16 03:07:38;;;;;;;2.38;1.30;;;;;;;;;;5091369;28;20065;-70
2023/03/16 03:10:07;;;;;;;6.13;1.23;;;;;;;;;;5091809;28;20036;-70
2023/03/16 03:12:34;;;;;;;7.60;1.70;;;;;;;;;;5091748;28;20016;-69
2023/03/16 03:15:00;;;;;;;5.03;1.60;;;;;;;;;;5091631;28;20028;-70
2023/03/16 03:17:32;;;;;;;4.70;1.45;;;;;;;;;;5090929;28;20558;-70
2023/03/16 03:20:01;;;;;;;10.68;1.70;;;;;;;;;;5089400;28;20451;-70
2023/03/16 03:22:27;;;;;;;8.77;1.50;;;;;;;;;;5071438;28;20377;-70
2023/03/16 03:24:53;;;;;;;3.95;1.45;;;;;;;;;;5073119;28;20062;-70
2023/03/16 03:27:21;;;;;;;6.47;2.45;;;;;;;;;;5072991;28;20032;-70
2023/03/16 03:29:49;;;;;;;6.53;1.40;;;;;;;;;;5071832;28;20400;-70
2023/03/16 03:32:15;;;;;;;6.65;1.38;;;;;;;;;;5075818;28;20115;-69
2023/03/16 03:34:41;;;;;;;2.05;1.05;;;;;;;;;;5093043;28;20032;-70
2023/03/16 03:37:07;;;;;;;5.10;1.80;;;;;;;;;;5091769;28;20462;-69
2023/03/16 03:39:35;;;;;;;7.40;1.83;;;;;;;;;;5091405;28;20487;-70
2023/03/16 03:42:01;;;;;;;7.28;2.00;;;;;;;;;;5073742;28;20666;-70
2023/03/16 03:44:33;;;;;;;9.32;1.63;;;;;;;;;;5071288;28;20090;-69
2023/03/16 03:46:59;;;;;;;6.38;2.13;;;;;;;;;;5071419;28;20036;-70
2023/03/16 03:49:26;;;;;;;5.95;1.27;;;;;;;;;;5071416;28;20034;-69
2023/03/16 03:51:53;;;;;;;6.18;1.48;;;;;;;;;;5073156;28;20059;-70
2023/03/16 03:54:24;;;;;;;4.70;1.20;;;;;;;;;;5089261;28;20032;-70
2023/03/16 03:56:54;;;;;;;3.72;1.70;;;;;;;;;;5091422;28;20058;-70
2023/03/16 03:59:21;;;;;;;8.38;1.40;;;;;;;;;;5091585;28;20187;-69
2023/03/16 04:02:18;;;;;;;4.57;1.45;;;;;;;;;;5091482;28;20036;-70
2023/03/16 04:04:53;;;;;;;5.95;1.67;;;;;;;;;;5092661;28;20043;-69
2023/03/16 04:07:19;;;;;;;4.57;1.40;;;;;;;;;;5092885;28;20441;-69
2023/03/16 04:09:46;;;;;;;4.68;1.35;;;;;;;;;;5091203;28;20024;-70
2023/03/16 04:12:23;;;;;;;6.68;1.55;;;;;;;;;;5088875;28;20035;-69
2023/03/16 04:14:50;;;;;;;6.03;1.38;;;;;;;;;;5074586;28;20024;-70
2023/03/16 04:17:16;;;;;;;10.30;1.60;;;;;;;;;;5090233;28;20024;-70
2023/03/16 04:19:44;;;;;;;4.72;1.52;;;;;;;;;;5091295;28;20412;-70
2023/03/16 04:22:13;;;;;;;6.00;1.50;;;;;;;;;;5074938;28;20036;-70
2023/03/16 04:24:41;;;;;;;3.05;1.40;;;;;;;;;;5091244;28;20070;-70
2023/03/16 04:27:10;;;;;;;5.82;2.80;;;;;;;;;;5096240;28;20056;-69
2023/03/16 04:29:37;;;;;;;4.95;1.42;;;;;;;;;;5096583;28;20490;-70
2023/03/16 04:32:07;;;;;;;8.68;1.77;;;;;;;;;;5095310;28;20501;-70
2023/03/16 04:34:34;;;;;;;6.65;1.60;;;;;;;;;;5093538;28;20043;-69
2023/03/16 04:37:04;;;;;;;7.88;2.65;;;;;;;;;;5080271;28;20029;-69
2023/03/16 04:39:32;;;;;;;10.27;1.77;;;;;;;;;;5088612;28;20031;-69
2023/03/16 04:42:00;;;;;;;7.15;1.75;;;;;;;;;;5077374;28;20094;-69
2023/03/16 04:44:27;;;;;;;8.80;1.60;;;;;;;;;;5067214;28;20400;-69
2023/03/16 04:46:53;;;;;;;10.02;1.75;;;;;;;;;;5082591;28;20100;-69
2023/03/16 04:49:20;;;;;;;9.30;1.58;;;;;;;;;;5081296;28;20028;-69
2023/03/16 04:51:47;;;;;;;5.50;1.45;;;;;;;;;;5083986;28;20119;-72
2023/03/16 04:54:18;;;;;;;10.05;1.75;;;;;;;;;;5074147;28;20437;-69
2023/03/16 04:56:44;;;;;;;6.30;3.42;;;;;;;;;;5080007;28;20411;-69
2023/03/16 04:59:27;;;;;;;9.98;1.67;;;;;;;;;;5083129;28;20047;-69
2023/03/16 05:02:07;;;;;;;8.63;2.17;;;;;;;;;;5079749;28;20045;-69
2023/03/16 05:04:33;;;;;;;7.63;1.42;;;;;;;;;;5087076;28;20510;-66
2023/03/16 05:06:59;;;;;;;7.07;1.60;;;;;;;;;;5094357;28;20031;-70
2023/03/16 05:09:31;;;;;;;7.97;1.75;;;;;;;;;;5093600;28;20460;-70
2023/03/16 05:11:58;;;;;;;8.20;3.08;;;;;;;;;;5094103;28;20036;-70
2023/03/16 05:14:24;;;;;;;8.65;1.70;;;;;;;;;;5094658;28;20111;-70
2023/03/16 05:17:13;;;;;;;7.50;1.85;;;;;;;;;;5093463;28;20038;-70
2023/03/16 05:19:41;;;;;;;4.95;1.90;;;;;;;;;;5094044;28;20039;-70
2023/03/16 05:22:07;;;;;;;5.53;1.83;;;;;;;;;;5093005;28;20016;-71
2023/03/16 05:24:36;;;;;;;3.83;1.67;;;;;;;;;;5094110;28;20024;-66
2023/03/16 05:27:02;;;;;;;9.55;1.52;;;;;;;;;;5077769;28;20574;-72
2023/03/16 05:29:33;;;;;;;4.63;1.95;;;;;;;;;;5093859;28;20061;-72
2023/03/16 05:31:59;;;;;;;6.88;2.13;;;;;;;;;;5088816;28;20056;-71
2023/03/16 05:34:28;;;;;;;6.20;1.85;;;;;;;;;;5087669;28;20506;-72
2023/03/16 05:36:54;;;;;;;13.00;1.83;;;;;;;;;;5063741;28;20032;-75
2023/03/16 05:39:22;;;;;;;7.13;1.50;;;;;;;;;;5093083;28;20028;-74
2023/03/16 05:41:49;;;;;;;4.55;1.55;;;;;;;;;;5088519;28;20032;-74
2023/03/16 05:44:36;;;;;;;4.20;1.50;;;;;;;;;;5085694;28;20036;-74
2023/03/16 05:47:31;;;;;;;7.32;1.33;;;;;;;;;;5085960;28;20492;-74
2023/03/16 05:49:57;;;;;;;11.52;1.67;;;;;;;;;;5093503;28;20025;-74
2023/03/16 05:52:34;;;;;;;6.35;1.60;;;;;;;;;;5092461;28;20111;-74
2023/03/16 05:55:08;;;;;;;6.40;1.30;;;;;;;;;;5076157;28;20035;-74
2023/03/16 05:57:35;;;;;;;3.42;1.50;;;;;;;;;;5089275;28;20028;-74
2023/03/16 06:00:10;;;;;;;8.82;3.00;;;;;;;;;;5082658;28;20028;-74
2023/03/16 06:02:38;;;;;;;4.68;1.30;;;;;;;;;;5082935;28;20115;-74
2023/03/16 06:05:06;;;;;;;9.20;1.75;;;;;;;;;;5080789;28;20012;-75
2023/03/16 06:07:32;;;;;;;8.23;1.92;;;;;;;;;;5093126;28;20031;-74
2023/03/16 06:09:59;;;;;;;6.25;1.27;;;;;;;;;;5075609;28;20028;-74
2023/03/16 06:12:26;;;;;;;4.85;1.35;;;;;;;;;;5079349;28;20063;-74
2023/03/16 06:14:52;;;;;;;4.20;1.30;;;;;;;;;;5068132;28;20020;-74
2023/03/16 06:17:18;;;;;;;2.75;1.20;;;;;;;;;;5080931;28;20119;-74
2023/03/16 06:19:45;;;;;;;25.73;10.77;;;;;;;;;;5084219;28;20077;-74
2023/03/16 06:22:11;;;;;;;20.40;8.93;;;;;;;;;;5085889;28;20043;-74
2023/03/16 06:24:38;;;;;;;34.17;13.80;;;;;;;;;;5071701;28;20074;-74
2023/03/16 06:27:04;;;;;;;14.00;5.75;;;;;;;;;;5071652;28;20034;-74
2023/03/16 06:29:37;;;;;;;8.70;3.72;;;;;;;;;;5073949;28;20035;-74
2023/03/16 06:32:03;;;;;;;9.45;2.13;;;;;;;;;;5079962;28;20028;-73
2023/03/16 06:34:29;;;;;;;10.00;2.42;;;;;;;;;;5074631;28;20035;-73
2023/03/16 06:36:56;;;;;;;11.77;2.22;;;;;;;;;;5071117;28;20035;-73
2023/03/16 06:39:22;;;;;;;6.57;1.88;;;;;;;;;;5073629;28;20028;-74
2023/03/16 06:41:50;;;;;;;7.68;1.90;;;;;;;;;;5083415;28;20074;-74
2023/03/16 06:44:17;;;;;;;9.45;2.00;;;;;;;;;;5061168;28;20042;-74
2023/03/16 06:46:53;;;;;;;8.52;1.58;;;;;;;;;;5092734;28;20032;-74
2023/03/16 06:49:20;;;;;;;9.05;1.98;;;;;;;;;;5090505;28;20031;-74
2023/03/16 06:51:46;;;;;;;8.15;2.47;;;;;;;;;;5089960;28;20518;-74
2023/03/16 06:54:12;;;;;;;12.65;1.98;;;;;;;;;;5090838;28;20476;-74
2023/03/16 06:56:39;;;;;;;5.75;1.67;;;;;;;;;;5077578;28;20040;-78
2023/03/16 06:59:05;;;;;;;12.68;2.17;;;;;;;;;;5072843;28;20036;-79
2023/03/16 07:01:32;;;;;;;9.48;2.03;;;;;;;;;;5091949;28;20024;-78
2023/03/16 07:03:58;;;;;;;12.15;2.03;;;;;;;;;;5090333;28;20060;-78
2023/03/16 07:06:28;;;;;;;7.03;1.60;;;;;;;;;;5058727;28;20069;-79
2023/03/16 07:08:55;;;;;;;6.25;2.13;;;;;;;;;;5072055;28;20029;-79
2023/03/16 07:11:22;;;;;;;11.88;2.10;;;;;;;;;;5077463;28;20138;-79
2023/03/16 07:13:48;;;;;;;3.78;1.58;;;;;;;;;;5080123;28;20029;-77
2023/03/16 07:16:17;;;;;;;5.45;1.70;;;;;;;;;;5084470;28;20032;-77
2023/03/16 07:18:43;;;;;;;6.38;1.50;;;;;;;;;;5080591;28;20094;-77
2023/03/16 07:21:11;;;;;;;8.57;2.00;;;;;;;;;;5082406;28;20417;-77
2023/03/16 07:23:38;;;;;;;5.13;2.05;;;;;;;;;;5083094;28;20032;-77
2023/03/16 07:26:07;;;;;;;12.15;2.45;;;;;;;;;;5076026;28;20074;-77
2023/03/16 07:28:35;;;;;;;7.07;1.98;;;;;;;;;;5087986;28;20119;-77
2023/03/16 07:31:04;;;;;;;4.60;1.90;;;;;;;;;;5060747;28;20020;-77
2023/03/16 07:33:36;;;;;;;9.57;1.88;;;;;;;;;;5082083;28;20028;-77
2023/03/16 07:36:05;;;;;;;10.05;2.72;;;;;;;;;;5076486;28;20050;-77
2023/03/16 07:38:33;;;;;;;12.02;2.50;;;;;;;;;;5081820;28;20070;-77
2023/03/16 07:41:00;;;;;;;11.05;2.47;;;;;;;;;;5075995;28;20050;-77
2023/03/16 07:43:28;;;;;;;17.20;2.85;;;;;;;;;;5079688;28;20024;-79
2023/03/16 07:45:55;;;;;;;7.95;2.67;;;;;;;;;;5096706;28;20020;-75
2023/03/16 07:48:22;;;;;;;7.05;2.63;;;;;;;;;;5079196;28;20531;-75
2023/03/16 07:50:53;;;;;;;9.05;2.58;;;;;;;;;;5072696;28;20103;-75
2023/03/16 07:53:19;;;;;;;11.77;2.45;;;;;;;;;;5077529;28;20079;-75
2023/03/16 07:55:50;;;;;;;9.80;3.10;;;;;;;;;;5077245;28;20029;-75
2023/03/16 07:58:17;;;;;;;10.45;2.60;;;;;;;;;;5055664;28;20124;-75
2023/03/16 08:00:44;;;;;;;11.77;3.13;;;;;;;;;;5075407;28;20388;-75
2023/03/16 08:03:10;;;;;;;9.20;2.60;;;;;;;;;;5074262;28;20020;-75
2023/03/16 08:05:37;;;;;;;13.02;2.47;;;;;;;;;;5078836;28;20357;-75
2023/03/16 08:08:09;;;;;;;8.02;2.63;;;;;;;;;;5079520;28;20469;-75
2023/03/16 08:10:37;;;;;;;10.38;2.58;;;;;;;;;;5080259;28;20032;-75
2023/03/16 08:13:10;;;;;;;;;;;;;;;;;;5090279;28;20024;-75
2023/03/16 08:15:41;;;;;;;9.98;2.45;;;;;;;;;;5078171;28;19968;-75
2023/03/16 08:18:17;;;;;;;6.57;2.33;;;;;;;;;;5077013;28;20572;-75
2023/03/16 08:20:44;;;;;;;8.80;2.67;;;;;;;;;;5078845;28;20077;-75
2023/03/16 08:23:11;;;;;;;8.48;2.30;;;;;;;;;;5077333;28;20020;-75
2023/03/16 08:25:40;;;;;;;7.72;2.25;;;;;;;;;;5085728;28;20017;-75
2023/03/16 08:28:11;;;;;;;10.50;2.50;;;;;;;;;;5080200;28;20016;-75
2023/03/16 08:30:43;;;;;;;9.57;2.70;;;;;;;;;;5082950;28;20033;-75
2023/03/16 08:33:20;;;;;;;5.70;1.98;;;;;;;;;;5060913;28;20500;-75
2023/03/16 08:35:46;;;;;;;9.20;2.20;;;;;;;;;;5075187;28;20054;-75
2023/03/16 08:38:14;;;;;;;4.47;2.00;;;;;;;;;;5077378;28;20021;-75
2023/03/16 08:40:47;;;;;;;7.88;2.20;;;;;;;;;;5075082;28;20053;-74
2023/03/16 08:43:17;;;;;;;7.93;2.17;;;;;;;;;;5085404;28;20538;-75
2023/03/16 08:45:45;;;;;;;5.60;2.22;;;;;;;;;;5077965;28;20024;-75
2023/03/16 08:48:13;;;;;;;7.55;2.20;;;;;;;;;;5073991;28;20016;-75
2023/03/16 08:50:42;;;;;;;5.38;1.88;;;;;;;;;;5073786;28;20103;-75
2023/03/16 08:53:09;;;;;;;5.10;1.60;;;;;;;;;;5064650;28;20032;-75
2023/03/16 08:55:35;;;;;;;6.07;1.65;;;;;;;;;;5077177;28;20447;-74
2023/03/16 08:58:02;;;;;;;9.63;1.98;;;;;;;;;;5076314;28;20114;-74
2023/03/16 09:00:28;;;;;;;6.00;2.47;;;;;;;;;;5083217;28;20032;-73
2023/03/16 09:02:55;;;;;;;7.38;2.30;;;;;;;;;;5078586;28;20043;-73
2023/03/16 09:05:22;;;;;;;8.75;2.22;;;;;;;;;;5075656;28;20584;-73
2023/03/16 09:07:48;;;;;;;4.25;2.03;;;;;;;;;;5082488;28;20012;-73
2023/03/16 09:10:15;;;;;;;5.32;1.95;;;;;;;;;;5080786;28;20440;-73
2023/03/16 09:12:42;;;;;;;4.03;1.83;;;;;;;;;;5084972;28;20035;-74
2023/03/16 09:15:09;;;;;;;5.32;1.88;;;;;;;;;;5084740;28;20544;-73
2023/03/16 09:17:35;;;;;;;8.10;1.75;;;;;;;;;;5087585;28;20055;-74
2023/03/16 09:20:03;;;;;;;8.75;2.05;;;;;;;;;;5087834;28;20032;-74
2023/03/16 09:22:30;;;;;;;5.97;2.05;;;;;;;;;;5077225;28;20071;-73
2023/03/16 09:24:56;;;;;;;5.03;1.90;;;;;;;;;;5083109;28;20024;-74
2023/03/16 09:27:22;;;;;;;5.88;2.25;;;;;;;;;;5086035;28;20028;-74
2023/03/16 09:29:49;;;;;;;6.97;2.63;;;;;;;;;;5085733;28;20028;-74
2023/03/16 09:32:15;;;;;;;7.50;2.10;;;;;;;;;;5078708;28;20040;-74
2023/03/16 09:34:41;;;;;;;6.47;2.78;;;;;;;;;;5084204;28;20058;-74
2023/03/16 09:37:08;;;;;;;9.35;2.53;;;;;;;;;;5078130;28;20033;-74
2023/03/16 09:39:35;;;;;;;6.55;1.77;;;;;;;;;;5083155;28;20408;-74
2023/03/16 09:42:28;;;;;;;3.83;1.88;;;;;;;;;;5080965;28;20036;-74
2023/03/16 09:45:04;;;;;;;6.85;2.10;;;;;;;;;;5079839;28;20032;-74
2023/03/16 09:47:32;;;;;;;7.60;2.17;;;;;;;;;;5082360;28;20507;-74
2023/03/16 09:50:01;;;;;;;8.45;2.00;;;;;;;;;;5084532;28;20016;-74
2023/03/16 09:52:39;;;;;;;7.32;2.22;;;;;;;;;;5080039;28;20021;-73
2023/03/16 09:55:05;;;;;;;5.68;2.40;;;;;;;;;;5080565;28;20114;-74
2023/03/16 09:57:35;;;;;;;7.63;2.35;;;;;;;;;;5084930;28;20181;-73
2023/03/16 10:00:10;;;;;;;9.13;2.33;;;;;;;;;;5081129;28;20445;-72
2023/03/16 10:02:39;;;;;;;9.23;2.45;;;;;;;;;;5081351;28;20032;-73
2023/03/16 10:05:09;;;;;;;8.30;2.13;;;;;;;;;;5081112;28;20361;-73
2023/03/16 10:07:36;;;;;;;8.88;2.47;;;;;;;;;;5083652;28;20032;-73
2023/03/16 10:10:03;;;;;;;12.20;2.63;;;;;;;;;;5073145;28;20020;-73
2023/03/16 10:12:31;;;;;;;11.60;2.38;;;;;;;;;;5084872;28;20048;-73
2023/03/16 10:15:30;;;;;;;7.07;1.98;;;;;;;;;;5082711;28;20024;-73
2023/03/16 10:18:02;;;;;;;10.23;3.10;;;;;;;;;;5022940;28;20067;-73
2023/03/16 10:20:31;;;;;;;12.52;3.13;;;;;;;;;;5029618;28;20128;-73
2023/03/16 10:23:00;;;;;;;7.22;2.30;;;;;;;;;;5021578;28;20090;-73
2023/03/16 10:25:45;;;;;;;10.80;2.42;;;;;;;;;;5012217;28;20167;-73
2023/03/16 10:28:16;;;;;;;7.75;2.75;;;;;;;;;;5029709;28;20406;-73
2023/03/16 10:30:42;;;;;;;10.48;2.72;;;;;;;;;;5016259;28;20037;-73
2023/03/16 10:33:12;;;;;;;7.43;2.67;;;;;;;;;;5029464;28;20030;-73
2023/03/16 10:35:48;;;;;;;7.47;2.30;;;;;;;;;;5021093;28;20038;-73
2023/03/16 10:38:37;;;;;;;9.57;2.72;;;;;;;;;;5029625;28;20128;-73
2023/03/16 10:41:05;;;;;;;11.52;2.67;;;;;;;;;;5022810;28;20055;-73
2023/03/16 10:43:31;;;;;;;11.55;2.53;;;;;;;;;;5029381;28;20565;-73
2023/03/16 10:45:59;;;;;;;12.80;2.88;;;;;;;;;;5029540;28;20021;-73
2023/03/16 10:48:27;;;;;;;13.75;2.80;;;;;;;;;;5030040;28;20171;-73
2023/03/16 10:50:56;;;;;;;9.15;2.60;;;;;;;;;;5012404;28;20388;-73
2023/03/16 10:53:28;;;;;;;9.43;2.63;;;;;;;;;;5048669;28;20098;-73
2023/03/16 10:55:58;;;;;;;8.70;2.33;;;;;;;;;;5081898;28;20523;-73
2023/03/16 10:58:26;;;;;;;9.98;2.20;;;;;;;;;;5072254;28;20500;-73
2023/03/16 11:00:52;;;;;;;10.70;2.78;;;;;;;;;;5079938;28;20024;-73
2023/03/16 11:03:26;;;;;;;10.70;2.67;;;;;;;;;;5082678;28;20028;-73
2023/03/16 11:05:57;;;;;;;7.15;2.30;;;;;;;;;;5074857;28;20028;-73
2023/03/16 11:08:26;;;;;;;9.20;2.70;;;;;;;;;;5083335;28;20032;-73
2023/03/16 11:11:01;;;;;;;11.50;2.20;;;;;;;;;;5080090;28;20412;-73
2023/03/16 11:13:37;;;;;;;9.63;2.47;;;;;;;;;;5078415;28;20032;-73
2023/03/16 11:16:22;;;;;;;8.55;2.55;;;;;;;;;;5079430;28;20043;-73
2023/03/16 11:18:55;;;;;;;20.88;2.97;;;;;;;;;;5076485;28;20083;-73
2023/03/16 11:21:24;;;;;;;8.88;2.60;;;;;;;;;;5082998;28;20388;-73
2023/03/16 11:23:54;;;;;;;7.03;2.15;;;;;;;;;;5075492;28;20055;-73
2023/03/16 11:26:24;;;;;;;11.30;3.58;;;;;;;;;;5080270;28;20028;-73
2023/03/16 11:29:00;;;;;;;11.05;2.80;;;;;;;;;;5083052;28;20027;-73
2023/03/16 11:31:31;;;;;;;14.02;2.65;;;;;;;;;;5080125;28;20024;-73
2023/03/16 11:33:57;;;;;;;9.07;2.50;;;;;;;;;;5084404;28;20035;-74
2023/03/16 11:36:28;;;;;;;10.98;2.63;;;;;;;;;;5081735;28;20020;-74
2023/03/16 11:39:07;;;;;;;9.45;2.65;;;;;;;;;;5076645;28;20031;-73
2023/03/16 11:41:42;;;;;;;9.25;3.30;;;;;;;;;;5079565;28;20062;-73
2023/03/16 11:44:14;;;;;;;11.00;2.63;;;;;;;;;;5078110;28;20047;-73
2023/03/16 11:46:49;;;;;;;9.53;3.30;;;;;;;;;;5073922;28;20553;-73
2023/03/16 11:49:38;;;;;;;12.65;2.70;;;;;;;;;;5075476;28;20028;-73
2023/03/16 11:52:14;;;;;;;18.98;2.78;;;;;;;;;;5076975;28;20472;-73
2023/03/16 11:54:47;;;;;;;18.80;3.28;;;;;;;;;;5078207;28;20028;-73
2023/03/16 11:57:32;;;;;;;13.43;3.15;;;;;;;;;;5075986;28;20089;-74
2023/03/16 12:00:01;;;;;;;12.60;2.95;;;;;;;;;;5081212;28;20036;-74
2023/03/16 12:02:30;;;;;;;15.85;3.25;;;;;;;;;;5082236;28;20078;-73
2023/03/16 12:05:03;;;;;;;10.50;3.00;;;;;;;;;;5085263;28;20028;-73
2023/03/16 12:07:39;;;;;;;12.65;3.22;;;;;;;;;;5079930;28;20028;-74
2023/03/16 12:10:06;;;;;;;17.83;2.92;;;;;;;;;;5076317;28;20070;-73
2023/03/16 12:12:41;;;;;;;14.95;2.53;;;;;;;;;;5078466;28;20090;-74
2023/03/16 12:15:07;;;;;;;12.25;2.72;;;;;;;;;;5077298;28;20511;-74
2023/03/16 12:17:36;;;;;;;12.15;2.75;;;;;;;;;;5079798;28;20024;-74
2023/03/16 12:20:22;;;;;;;16.80;2.72;;;;;;;;;;5081643;28;20020;-74
2023/03/16 12:22:51;;;;;;;13.43;2.80;;;;;;;;;;5078805;28;20032;-73
2023/03/16 12:25:29;;;;;;;12.07;3.42;;;;;;;;;;5079299;28;20034;-73
2023/03/16 12:27:57;;;;;;;15.63;3.10;;;;;;;;;;5082555;28;20032;-74
2023/03/16 12:30:29;;;;;;;16.02;2.85;;;;;;;;;;5080345;28;20044;-72
2023/03/16 12:32:59;;;;;;;9.43;2.75;;;;;;;;;;5076895;28;20063;-73
2023/03/16 12:35:44;;;;;;;15.30;3.15;;;;;;;;;;5077618;28;20028;-73
2023/03/16 12:38:10;;;;;;;11.10;2.45;;;;;;;;;;5060422;28;20435;-73
2023/03/16 12:40:39;;;;;;;11.25;2.65;;;;;;;;;;5082415;28;20052;-73
2023/03/16 12:43:17;;;;;;;14.52;2.90;;;;;;;;;;5086000;28;20051;-73
2023/03/16 12:45:45;;;;;;;13.35;2.97;;;;;;;;;;5075308;28;20024;-74
2023/03/16 12:48:26;;;;;;;17.02;2.88;;;;;;;;;;5067860;28;20422;-74
2023/03/16 12:50:54;;;;;;;13.52;3.00;;;;;;;;;;5078407;28;20468;-73
2023/03/16 12:53:27;;;;;;;13.10;2.83;;;;;;;;;;5086379;28;20054;-73
2023/03/16 12:55:56;;;;;;;11.55;3.25;;;;;;;;;;5080447;28;20031;-73
2023/03/16 12:58:23;;;;;;;9.60;2.55;;;;;;;;;;5082554;28;20103;-74
2023/03/16 13:00:55;;;;;;;19.58;3.42;;;;;;;;;;5081443;28;20033;-74
2023/03/16 13:03:22;;;;;;;14.60;2.95;;;;;;;;;;5082499;28;20037;-73
2023/03/16 13:05:53;;;;;;;19.92;3.33;;;;;;;;;;5085123;28;20017;-73
2023/03/16 13:08:20;;;;;;;10.90;3.22;;;;;;;;;;5086011;28;20024;-73
2023/03/16 13:10:59;;;;;;;11.13;2.67;;;;;;;;;;5076880;28;20028;-73
2023/03/16 13:13:27;;;;;;;14.20;3.03;;;;;;;;;;5085026;28;20032;-73
2023/03/16 13:16:03;;;;;;;17.25;3.22;;;;;;;;;;5083530;28;20439;-73
2023/03/16 13:18:43;;;;;;;14.75;3.10;;;;;;;;;;5081866;28;20032;-73
2023/03/16 13:21:18;;;;;;;9.63;2.88;;;;;;;;;;5081852;28;20032;-73
2023/03/16 13:23:53;;;;;;;18.48;3.40;;;;;;;;;;5081517;28;20479;-73
2023/03/16 13:26:30;;;;;;;12.32;2.75;;;;;;;;;;5081276;28;20032;-73
2023/03/16 13:28:56;;;;;;;14.57;2.65;;;;;;;;;;5081793;28;20426;-74
2023/03/16 13:31:36;;;;;;;14.98;2.83;;;;;;;;;;5085147;28;20095;-73
2023/03/16 13:34:02;;;;;;;12.77;2.88;;;;;;;;;;5080931;28;20488;-73
2023/03/16 13:36:30;;;;;;;11.82;2.63;;;;;;;;;;5082135;28;20039;-74
2023/03/16 13:39:03;;;;;;;10.07;2.58;;;;;;;;;;5063673;28;20383;-74
2023/03/16 13:41:29;;;;;;;15.35;2.88;;;;;;;;;;5084003;28;20098;-73
2023/03/16 13:43:55;;;;;;;15.88;2.13;;;;;;;;;;5062720;28;20042;-74
2023/03/16 13:46:27;;;;;;;14.10;2.75;;;;;;;;;;5087749;28;20025;-74
2023/03/16 13:48:56;;;;;;;10.32;2.20;;;;;;;;;;5083527;28;20542;-74
2023/03/16 13:51:22;;;;;;;12.38;2.65;;;;;;;;;;5083164;28;20111;-74
2023/03/16 13:53:49;;;;;;;6.50;2.03;;;;;;;;;;5084005;28;20016;-73
2023/03/16 13:56:17;;;;;;;6.57;1.95;;;;;;;;;;5083445;28;20016;-73
2023/03/16 13:58:45;;;;;;;12.05;2.58;;;;;;;;;;5082900;28;20053;-74
2023/03/16 14:01:17;;;;;;;7.25;1.92;;;;;;;;;;5078507;28;20013;-73
2023/03/16 14:03:44;;;;;;;11.88;2.08;;;;;;;;;;5080738;28;20078;-74
2023/03/16 14:06:20;;;;;;;12.52;3.03;;;;;;;;;;5083102;28;20031;-73
2023/03/16 14:08:49;;;;;;;12.57;2.42;;;;;;;;;;5083035;28;20031;-73
2023/03/16 14:11:15;;;;;;;9.88;2.58;;;;;;;;;;5079664;28;20063;-73
2023/03/16 14:13:41;;;;;;;12.85;2.42;;;;;;;;;;5081577;28;20032;-73
2023/03/16 14:16:10;;;;;;;11.88;2.78;;;;;;;;;;5083589;28;20427;-73
2023/03/16 14:18:39;;;;;;;14.40;2.55;;;;;;;;;;5084945;28;20020;-73
2023/03/16 14:21:22;;;;;;;15.77;2.90;;;;;;;;;;5078410;28;20028;-73
2023/03/16 14:23:53;;;;;;;17.10;3.13;;;;;;;;;;5082088;28;20396;-74
2023/03/16 14:26:20;;;;;;;12.05;2.30;;;;;;;;;;5083724;28;20412;-73
2023/03/16 14:28:57;;;;;;;12.05;3.17;;;;;;;;;;5083239;28;20081;-73
2023/03/16 14:31:30;;;;;;;11.35;2.40;;;;;;;;;;5074880;28;20033;-73
2023/03/16 14:34:01;;;;;;;12.65;3.28;;;;;;;;;;5082598;28;20032;-73
2023/03/16 14:36:34;;;;;;;13.73;3.10;;;;;;;;;;5080621;28;20025;-73
2023/03/16 14:39:00;;;;;;;;;;;;;;;;;;5082302;28;20021;-73
2023/03/16 14:41:27;;;;;;;10.18;2.10;;;;;;;;;;5082352;28;20053;-73
2023/03/16 14:44:03;;;;;;;15.02;2.50;;;;;;;;;;5092021;28;20039;-73
2023/03/16 14:46:37;;;;;;;15.38;2.90;;;;;;;;;;5092026;28;20154;-73
2023/03/16 14:49:07;;;;;;;10.80;2.38;;;;;;;;;;5093148;28;20059;-73
2023/03/16 14:51:35;;;;;;;12.05;2.13;;;;;;;;;;5093434;28;20040;-73
2023/03/16 14:54:01;;;;;;;18.58;2.92;;;;;;;;;;5092926;28;20027;-73